createdAt,value
2023-03-15T00:00:26.416Z,1.60
2023-03-15T00:02:53.419Z,1.80
2023-03-15T00:05:21.743Z,1.70
2023-03-15T00:07:48.733Z,1.75
2023-03-15T00:10:16.136Z,1.45
2023-03-15T00:12:43.243Z,1.65
2023-03-15T00:15:13.260Z,1.65
2023-03-15T00:17:41.900Z,1.80
2023-03-15T00:20:10.834Z,1.77
2023-03-15T00:22:37.827Z,1.85
2023-03-15T00:25:05.485Z,1.80
2023-03-15T00:27:32.355Z,1.80
2023-03-15T00:29:59.761Z,1.90
2023-03-15T00:32:26.733Z,2.00
2023-03-15T00:34:55.713Z,1.70
2023-03-15T00:37:25.700Z,1.63
2023-03-15T00:39:55.598Z,1.73
2023-03-15T00:42:27.617Z,2.00
2023-03-15T00:44:57.746Z,1.88
2023-03-15T00:47:24.903Z,1.98
2023-03-15T00:49:52.048Z,1.98
2023-03-15T00:52:22.118Z,2.60
2023-03-15T00:54:52.293Z,2.33
2023-03-15T00:57:19.769Z,1.98
2023-03-15T00:59:47.364Z,2.28
2023-03-15T01:02:14.277Z,1.90
2023-03-15T01:04:41.261Z,2.30
2023-03-15T01:07:08.738Z,2.33
2023-03-15T01:09:37.490Z,2.45
2023-03-15T01:12:05.335Z,2.58
2023-03-15T01:14:32.370Z,2.20
2023-03-15T01:16:59.549Z,2.55
2023-03-15T01:19:26.465Z,2.30
2023-03-15T01:21:53.439Z,2.45
2023-03-15T01:24:20.543Z,2.67
2023-03-15T01:26:51.116Z,2.92
2023-03-15T01:29:18.127Z,3.10
2023-03-15T01:31:45.127Z,3.55
2023-03-15T01:34:12.256Z,3.55
2023-03-15T01:36:39.142Z,3.30
2023-03-15T01:39:06.207Z,3.20
2023-03-15T01:41:42.211Z,3.30
2023-03-15T01:44:13.820Z,3.63
2023-03-15T01:46:41.335Z,2.75
2023-03-15T01:49:16.170Z,3.17
2023-03-15T01:51:46.992Z,3.22
2023-03-15T01:54:19.536Z,3.53
2023-03-15T01:56:51.735Z,2.92
2023-03-15T01:59:27.491Z,3.10
2023-03-15T02:01:55.704Z,3.30
2023-03-15T02:04:28.246Z,3.88
2023-03-15T02:06:59.421Z,3.55
2023-03-15T02:09:35.919Z,4.00
2023-03-15T02:12:05.239Z,4.40
2023-03-15T02:14:34.386Z,4.18
2023-03-15T02:17:02.663Z,4.05
2023-03-15T02:19:41.971Z,3.95
2023-03-15T02:22:23.147Z,3.70
2023-03-15T02:24:59.657Z,3.83
2023-03-15T02:27:30.619Z,4.15
2023-03-15T02:29:58.363Z,4.72
2023-03-15T02:32:25.331Z,4.25
2023-03-15T02:34:52.588Z,3.95
2023-03-15T02:37:19.569Z,3.92
2023-03-15T02:39:46.692Z,4.18
2023-03-15T02:42:14.337Z,4.38
2023-03-15T02:44:45.942Z,4.28
2023-03-15T02:47:18.923Z,4.53
2023-03-15T02:49:50.961Z,4.03
2023-03-15T02:52:18.130Z,4.22
2023-03-15T02:54:45.075Z,4.43
2023-03-15T02:57:13.487Z,4.82
2023-03-15T02:59:42.996Z,4.50
2023-03-15T03:02:14.141Z,5.32
2023-03-15T03:04:42.865Z,5.53
2023-03-15T03:07:10.644Z,5.88
2023-03-15T03:09:57.865Z,6.63
2023-03-15T03:12:27.089Z,6.40
2023-03-15T03:14:56.712Z,6.35
2023-03-15T03:17:24.662Z,6.32
2023-03-15T03:19:52.593Z,7.25
2023-03-15T03:22:25.059Z,6.30
2023-03-15T03:24:52.615Z,5.85
2023-03-15T03:27:21.604Z,6.35
2023-03-15T03:29:50.320Z,6.70
2023-03-15T03:32:18.868Z,6.50
2023-03-15T03:34:48.384Z,6.97
2023-03-15T03:37:17.523Z,6.47
2023-03-15T03:39:58.924Z,6.38
2023-03-15T03:42:26.084Z,6.30
2023-03-15T03:44:54.603Z,6.85
2023-03-15T03:47:25.347Z,5.70
2023-03-15T03:49:52.261Z,6.75
2023-03-15T03:52:19.178Z,6.30
2023-03-15T03:54:47.269Z,7.30
2023-03-15T03:57:14.348Z,6.30
2023-03-15T03:59:44.198Z,7.13
2023-03-15T04:02:11.412Z,7.10
2023-03-15T04:04:45.654Z,6.00
2023-03-15T04:07:17.431Z,7.50
2023-03-15T04:09:44.953Z,7.28
2023-03-15T04:12:12.559Z,7.25
2023-03-15T04:14:41.860Z,7.55
2023-03-15T04:17:11.330Z,7.63
2023-03-15T04:19:38.660Z,6.22
2023-03-15T04:22:10.289Z,7.30
2023-03-15T04:24:55.532Z,7.72
2023-03-15T04:27:58.906Z,7.85
2023-03-15T04:30:50.244Z,7.65
2023-03-15T04:33:35.952Z,6.82
2023-03-15T04:36:08.844Z,7.28
2023-03-15T04:39:05.887Z,6.95
2023-03-15T04:41:45.095Z,6.60
2023-03-15T04:44:32.304Z,7.43
2023-03-15T04:47:10.482Z,8.00
2023-03-15T04:49:47.711Z,7.63
2023-03-15T04:52:40.718Z,8.88
2023-03-15T04:55:24.791Z,8.18
2023-03-15T04:58:10.156Z,11.55
2023-03-15T05:00:59.859Z,28.50
2023-03-15T05:03:44.435Z,11.98
2023-03-15T05:06:28.771Z,10.43
2023-03-15T05:09:28.198Z,10.60
2023-03-15T05:12:15.181Z,8.32
2023-03-15T05:15:07.471Z,7.28
2023-03-15T05:17:46.597Z,9.10
2023-03-15T05:20:25.317Z,9.10
2023-03-15T05:23:13.733Z,9.02
2023-03-15T05:26:04.632Z,10.45
2023-03-15T05:28:45.362Z,8.90
2023-03-15T05:31:24.712Z,9.73
2023-03-15T05:34:15.194Z,8.77
2023-03-15T05:37:02.252Z,9.48
2023-03-15T05:39:49.897Z,11.15
2023-03-15T05:42:51.118Z,13.52
2023-03-15T05:45:22.488Z,11.90
2023-03-15T05:48:14.615Z,10.30
2023-03-15T05:50:53.304Z,9.32
2023-03-15T05:53:46.482Z,12.32
2023-03-15T05:56:32.798Z,12.18
2023-03-15T05:59:17.794Z,11.38
2023-03-15T06:04:42.536Z,11.23
2023-03-15T06:07:11.699Z,10.32
2023-03-15T06:09:38.731Z,9.40
2023-03-15T06:12:06.241Z,9.82
2023-03-15T06:14:33.308Z,8.85
2023-03-15T06:17:08.054Z,9.73
2023-03-15T06:19:37.364Z,8.48
2023-03-15T06:22:04.956Z,8.98
2023-03-15T06:24:41.233Z,7.88
2023-03-15T06:27:08.466Z,7.53
2023-03-15T06:29:36.644Z,8.25
2023-03-15T06:32:05.188Z,8.02
2023-03-15T06:34:36.581Z,7.93
2023-03-15T06:37:03.573Z,7.38
2023-03-15T06:39:30.534Z,7.80
2023-03-15T06:41:58.571Z,7.68
2023-03-15T06:44:28.352Z,9.40
2023-03-15T06:47:00.668Z,7.45
2023-03-15T06:49:27.853Z,7.80
2023-03-15T06:51:56.164Z,9.15
2023-03-15T06:54:23.449Z,5.70
2023-03-15T06:56:51.134Z,5.78
2023-03-15T06:59:18.047Z,5.78
2023-03-15T07:01:45.230Z,5.40
2023-03-15T07:04:12.151Z,6.65
2023-03-15T07:06:39.389Z,6.47
2023-03-15T07:09:07.826Z,9.82
2023-03-15T07:11:34.783Z,7.18
2023-03-15T07:14:01.904Z,8.25
2023-03-15T07:16:28.865Z,6.68
2023-03-15T07:18:56.630Z,8.65
2023-03-15T07:21:23.589Z,6.68
2023-03-15T07:23:50.522Z,7.80
2023-03-15T07:26:19.059Z,5.60
2023-03-15T07:28:46.309Z,6.65
2023-03-15T07:31:13.749Z,5.68
2023-03-15T07:33:40.864Z,6.72
2023-03-15T07:36:08.447Z,5.95
2023-03-15T07:38:36.210Z,5.72
2023-03-15T07:41:04.718Z,6.22
2023-03-15T07:43:33.484Z,6.07
2023-03-15T07:46:12.509Z,5.75
2023-03-15T07:48:39.521Z,5.65
2023-03-15T07:51:06.414Z,5.40
2023-03-15T07:53:33.600Z,5.03
2023-03-15T07:56:01.323Z,4.30
2023-03-15T07:58:28.537Z,4.25
2023-03-15T08:00:57.366Z,4.60
2023-03-15T08:03:25.640Z,4.38
2023-03-15T08:05:53.196Z,4.38
2023-03-15T08:08:20.197Z,4.25
2023-03-15T08:10:47.201Z,4.45
2023-03-15T08:13:14.350Z,4.55
2023-03-15T08:15:41.681Z,3.85
2023-03-15T08:18:10.207Z,3.03
2023-03-15T08:20:37.139Z,3.10
2023-03-15T08:23:04.092Z,3.63
2023-03-15T08:25:31.354Z,3.58
2023-03-15T08:27:58.284Z,3.65
2023-03-15T08:30:25.353Z,3.78
2023-03-15T08:32:54.580Z,3.53
2023-03-15T08:35:23.081Z,3.20
2023-03-15T08:37:52.448Z,3.33
2023-03-15T08:40:28.997Z,3.60
2023-03-15T08:42:56.797Z,3.90
2023-03-15T08:45:25.025Z,3.50
2023-03-15T08:47:55.412Z,3.70
2023-03-15T08:50:24.337Z,3.42
2023-03-15T08:52:51.384Z,3.30
2023-03-15T08:55:18.590Z,3.25
2023-03-15T08:57:45.502Z,3.55
2023-03-15T09:00:23.294Z,3.58
2023-03-15T09:02:52.079Z,3.88
2023-03-15T09:05:20.616Z,3.55
2023-03-15T09:07:49.389Z,3.90
2023-03-15T09:10:17.487Z,3.33
2023-03-15T09:12:45.660Z,3.85
2023-03-15T09:15:13.293Z,3.42
2023-03-15T09:17:42.438Z,3.28
2023-03-15T09:20:14.840Z,3.38
2023-03-15T09:22:42.566Z,3.80
2023-03-15T09:25:11.129Z,3.13
2023-03-15T09:27:38.399Z,3.70
2023-03-15T09:30:06.387Z,3.63
2023-03-15T09:32:36.598Z,4.18
2023-03-15T09:35:04.478Z,3.70
2023-03-15T09:37:31.859Z,3.67
2023-03-15T09:39:58.873Z,3.08
2023-03-15T09:42:35.167Z,2.92
2023-03-15T09:45:09.304Z,2.80
2023-03-15T09:47:43.518Z,3.77
2023-03-15T09:50:20.226Z,3.30
2023-03-15T09:52:50.630Z,2.50
2023-03-15T09:55:21.832Z,2.10
2023-03-15T09:57:53.636Z,2.80
2023-03-15T10:00:23.863Z,2.33
2023-03-15T10:02:59.469Z,2.33
2023-03-15T10:05:35.174Z,1.83
2023-03-15T10:08:02.184Z,1.48
2023-03-15T10:10:34.395Z,1.42
2023-03-15T10:13:20.692Z,1.45
2023-03-15T10:16:01.243Z,1.50
2023-03-15T10:18:42.718Z,1.48
2023-03-15T10:21:16.251Z,1.50
2023-03-15T10:23:49.342Z,1.23
2023-03-15T10:26:22.875Z,1.70
2023-03-15T10:28:53.004Z,1.70
2023-03-15T10:31:32.962Z,1.45
2023-03-15T10:34:11.573Z,2.00
2023-03-15T10:36:45.020Z,2.25
2023-03-15T10:39:12.928Z,1.58
2023-03-15T10:41:42.713Z,1.70
2023-03-15T10:44:15.110Z,1.60
2023-03-15T10:46:42.364Z,1.77
2023-03-15T10:49:14.812Z,1.60
2023-03-15T10:51:43.615Z,1.60
2023-03-15T10:54:17.106Z,1.50
2023-03-15T10:56:46.926Z,1.15
2023-03-15T10:59:20.854Z,1.40
2023-03-15T11:01:51.145Z,1.60
2023-03-15T11:04:21.446Z,1.75
2023-03-15T11:06:50.825Z,1.80
2023-03-15T11:09:19.421Z,1.30
2023-03-15T11:12:00.772Z,1.40
2023-03-15T11:14:34.019Z,1.58
2023-03-15T11:17:01.964Z,1.48
2023-03-15T11:19:32.507Z,1.77
2023-03-15T11:22:02.271Z,1.02
2023-03-15T11:24:31.653Z,1.38
2023-03-15T11:27:01.718Z,1.17
2023-03-15T11:29:32.537Z,1.20
2023-03-15T11:32:02.365Z,1.50
2023-03-15T11:34:39.783Z,1.08
2023-03-15T11:37:16.521Z,0.98
2023-03-15T11:39:50.250Z,1.20
2023-03-15T11:42:23.002Z,1.30
2023-03-15T11:44:55.596Z,1.63
2023-03-15T11:47:38.320Z,1.20
2023-03-15T11:50:06.072Z,1.60
2023-03-15T11:52:33.172Z,1.60
2023-03-15T11:55:03.621Z,1.40
2023-03-15T11:57:49.530Z,1.52
2023-03-15T12:00:44.195Z,1.50
2023-03-15T12:03:37.022Z,1.50
2023-03-15T12:06:12.553Z,1.35
2023-03-15T12:08:51.506Z,1.38
2023-03-15T12:11:40.969Z,1.30
2023-03-15T12:14:26.808Z,1.50
2023-03-15T12:17:12.400Z,1.30
2023-03-15T12:19:40.322Z,1.27
2023-03-15T12:22:15.445Z,1.20
2023-03-15T12:27:16.975Z,1.40
2023-03-15T12:29:45.964Z,1.10
2023-03-15T12:32:16.001Z,1.20
2023-03-15T12:34:47.204Z,1.10
2023-03-15T12:37:17.155Z,1.42
2023-03-15T12:39:47.444Z,1.20
2023-03-15T12:42:54.263Z,1.65
2023-03-15T12:45:45.411Z,1.48
2023-03-15T12:48:27.805Z,1.40
2023-03-15T12:51:14.623Z,1.50
2023-03-15T12:53:52.713Z,1.67
2023-03-15T12:56:34.867Z,1.25
2023-03-15T12:59:12.355Z,1.13
2023-03-15T13:01:42.765Z,1.33
2023-03-15T13:04:12.809Z,1.58
2023-03-15T13:06:52.654Z,1.10
2023-03-15T13:09:37.185Z,1.30
2023-03-15T13:12:10.785Z,1.20
2023-03-15T13:14:45.375Z,1.40
2023-03-15T13:17:26.946Z,1.60
2023-03-15T13:20:13.741Z,1.58
2023-03-15T13:22:55.409Z,1.73
2023-03-15T13:25:30.742Z,2.10
2023-03-15T13:28:01.789Z,1.80
2023-03-15T13:30:36.784Z,1.70
2023-03-15T13:33:28.396Z,1.95
2023-03-15T13:36:01.055Z,2.00
2023-03-15T13:38:31.263Z,1.88
2023-03-15T13:40:59.664Z,1.83
2023-03-15T13:43:31.664Z,2.28
2023-03-15T13:46:00.434Z,2.22
2023-03-15T13:48:28.976Z,1.63
2023-03-15T13:51:03.452Z,1.60
2023-03-15T13:53:48.233Z,2.00
2023-03-15T13:56:22.590Z,1.75
2023-03-15T13:58:52.095Z,2.13
2023-03-15T14:01:20.046Z,2.80
2023-03-15T14:03:53.888Z,2.10
2023-03-15T14:06:24.955Z,2.38
2023-03-15T14:08:54.790Z,2.10
2023-03-15T14:11:37.486Z,2.30
2023-03-15T14:14:21.780Z,1.95
2023-03-15T14:17:03.690Z,1.52
2023-03-15T14:19:33.438Z,1.45
2023-03-15T14:22:03.525Z,1.80
2023-03-15T14:24:35.239Z,1.48
2023-03-15T14:27:06.453Z,1.67
2023-03-15T14:29:35.677Z,1.40
2023-03-15T14:32:05.418Z,1.42
2023-03-15T14:34:34.997Z,1.30
2023-03-15T14:37:10.232Z,1.55
2023-03-15T14:39:42.189Z,1.70
2023-03-15T14:42:12.020Z,1.58
2023-03-15T14:44:39.208Z,1.58
2023-03-15T14:47:12.056Z,1.48
2023-03-15T14:49:39.044Z,1.95
2023-03-15T14:52:08.292Z,1.75
2023-03-15T14:54:35.313Z,1.90
2023-03-15T14:57:02.238Z,1.98
2023-03-15T14:59:29.146Z,1.60
2023-03-15T15:01:58.613Z,1.73
2023-03-15T15:04:31.261Z,2.10
2023-03-15T15:06:58.304Z,2.20
2023-03-15T15:09:28.168Z,2.00
2023-03-15T15:11:55.606Z,2.35
2023-03-15T15:14:22.738Z,1.67
2023-03-15T15:16:50.332Z,2.17
2023-03-15T15:19:17.657Z,2.00
2023-03-15T15:21:45.438Z,1.80
2023-03-15T15:24:15.812Z,1.60
2023-03-15T15:26:44.812Z,2.30
2023-03-15T15:29:14.646Z,2.45
2023-03-15T15:31:43.010Z,2.08
2023-03-15T15:34:11.181Z,1.98
2023-03-15T15:36:41.020Z,2.08
2023-03-15T15:39:20.611Z,2.30
2023-03-15T15:41:49.546Z,2.47
2023-03-15T15:44:18.874Z,2.10
2023-03-15T15:46:45.906Z,2.00
2023-03-15T15:49:13.565Z,1.70
2023-03-15T15:51:43.093Z,2.05
2023-03-15T15:54:14.888Z,1.80
2023-03-15T15:56:47.351Z,2.15
2023-03-15T15:59:16.917Z,1.88
2023-03-15T16:01:59.042Z,2.20
2023-03-15T16:04:27.446Z,2.03
2023-03-15T16:06:58.613Z,1.80
2023-03-15T16:09:28.686Z,2.25
2023-03-15T16:11:55.790Z,2.20
2023-03-15T16:14:24.230Z,2.15
2023-03-15T16:16:51.224Z,2.47
2023-03-15T16:19:18.184Z,2.40
2023-03-15T16:21:47.857Z,2.58
2023-03-15T16:24:18.026Z,2.40
2023-03-15T16:26:46.905Z,3.15
2023-03-15T16:29:16.844Z,2.38
2023-03-15T16:31:45.774Z,2.38
2023-03-15T16:34:14.283Z,2.95
2023-03-15T16:36:47.686Z,2.70
2023-03-15T16:39:16.410Z,2.47
2023-03-15T16:41:43.940Z,2.20
2023-03-15T16:44:12.370Z,2.70
2023-03-15T16:46:39.372Z,2.53
2023-03-15T16:49:08.094Z,2.55
2023-03-15T16:51:36.056Z,2.13
2023-03-15T16:54:16.088Z,2.50
2023-03-15T16:56:47.937Z,2.30
2023-03-15T16:59:16.624Z,2.65
2023-03-15T17:01:43.698Z,2.50
2023-03-15T17:04:12.643Z,2.70
2023-03-15T17:06:39.725Z,4.05
2023-03-15T17:09:11.327Z,3.63
2023-03-15T17:11:40.887Z,3.15
2023-03-15T17:14:13.715Z,2.90
2023-03-15T17:16:40.790Z,2.75
2023-03-15T17:19:13.213Z,2.63
2023-03-15T17:21:41.572Z,2.92
2023-03-15T17:24:09.399Z,2.50
2023-03-15T17:26:37.276Z,2.53
2023-03-15T17:29:04.737Z,2.55
2023-03-15T17:31:34.242Z,2.80
2023-03-15T17:34:01.353Z,2.40
2023-03-15T17:36:34.784Z,2.42
2023-03-15T17:39:02.817Z,2.25
2023-03-15T17:41:32.038Z,2.47
2023-03-15T17:43:59.324Z,2.40
2023-03-15T17:46:31.307Z,2.42
2023-03-15T17:48:59.082Z,2.60
2023-03-15T17:51:28.754Z,2.50
2023-03-15T17:53:59.347Z,3.17
2023-03-15T17:56:26.785Z,5.93
2023-03-15T17:58:53.912Z,3.80
2023-03-15T18:01:23.951Z,3.50
2023-03-15T18:03:51.721Z,6.30
2023-03-15T18:06:20.264Z,13.50
2023-03-15T18:08:48.309Z,6.15
2023-03-15T18:11:22.210Z,3.42
2023-03-15T18:13:49.398Z,3.38
2023-03-15T18:16:16.387Z,3.70
2023-03-15T18:18:43.564Z,3.25
2023-03-15T18:21:13.745Z,3.25
2023-03-15T18:23:41.136Z,2.88
2023-03-15T18:26:09.153Z,3.45
2023-03-15T18:28:37.923Z,3.13
2023-03-15T18:31:10.532Z,2.83
2023-03-15T18:33:37.872Z,3.50
2023-03-15T18:36:05.133Z,3.70
2023-03-15T18:38:32.211Z,3.55
2023-03-15T18:40:59.484Z,4.90
2023-03-15T18:43:26.706Z,24.15
2023-03-15T18:45:55.517Z,27.17
2023-03-15T18:48:34.284Z,22.33
2023-03-15T18:51:09.878Z,12.82
2023-03-15T18:53:37.059Z,35.85
2023-03-15T18:56:04.907Z,43.70
2023-03-15T18:58:32.298Z,26.58
2023-03-15T19:01:00.809Z,26.25
2023-03-15T19:03:28.052Z,16.55
2023-03-15T19:05:55.176Z,14.68
2023-03-15T19:08:22.119Z,25.35
2023-03-15T19:10:49.473Z,12.00
2023-03-15T19:13:16.395Z,14.00
2023-03-15T19:15:43.933Z,9.73
2023-03-15T19:18:12.214Z,6.70
2023-03-15T19:20:39.186Z,6.38
2023-03-15T19:23:06.293Z,9.25
2023-03-15T19:25:33.230Z,6.75
2023-03-15T19:28:00.122Z,5.70
2023-03-15T19:30:27.609Z,7.53
2023-03-15T19:32:55.024Z,7.72
2023-03-15T19:35:23.600Z,6.60
2023-03-15T19:37:50.728Z,6.88
2023-03-15T19:40:19.253Z,7.03
2023-03-15T19:42:46.923Z,8.77
2023-03-15T19:45:14.456Z,7.53
2023-03-15T19:47:41.903Z,6.75
2023-03-15T19:50:11.047Z,8.00
2023-03-15T19:52:45.692Z,9.65
2023-03-15T19:55:13.819Z,9.00
2023-03-15T19:57:40.836Z,7.00
2023-03-15T20:00:12.599Z,6.85
2023-03-15T20:02:41.043Z,8.27
2023-03-15T20:05:08.954Z,9.40
2023-03-15T20:07:36.472Z,12.60
2023-03-15T20:10:06.193Z,12.25
2023-03-15T20:12:33.090Z,12.48
2023-03-15T20:15:00.130Z,25.40
2023-03-15T20:17:27.805Z,25.52
2023-03-15T20:19:54.791Z,14.90
2023-03-15T20:22:21.766Z,12.90
2023-03-15T20:24:50.061Z,11.38
2023-03-15T20:27:18.620Z,11.60
2023-03-15T20:29:45.570Z,10.77
2023-03-15T20:32:12.573Z,11.20
2023-03-15T20:34:41.232Z,10.05
2023-03-15T20:37:08.254Z,10.20
2023-03-15T20:39:35.387Z,10.65
2023-03-15T20:42:02.295Z,13.05
2023-03-15T20:44:32.194Z,16.13
2023-03-15T20:46:59.456Z,14.73
2023-03-15T20:49:29.240Z,24.92
2023-03-15T20:51:56.368Z,20.38
2023-03-15T20:54:23.276Z,19.23
2023-03-15T20:56:50.260Z,13.05
2023-03-15T20:59:17.732Z,11.57
2023-03-15T21:01:47.237Z,9.18
2023-03-15T21:04:14.229Z,11.15
2023-03-15T21:06:41.170Z,13.07
2023-03-15T21:09:08.161Z,14.55
2023-03-15T21:11:36.128Z,8.30
2023-03-15T21:14:03.033Z,18.83
2023-03-15T21:16:29.967Z,29.80
2023-03-15T21:18:58.319Z,15.07
2023-03-15T21:21:25.440Z,24.42
2023-03-15T21:23:52.374Z,8.32
2023-03-15T21:26:19.349Z,7.53
2023-03-15T21:28:46.863Z,6.97
2023-03-15T21:31:14.304Z,14.07
2023-03-15T21:33:41.260Z,14.05
2023-03-15T21:36:09.809Z,9.73
2023-03-15T21:38:37.346Z,10.80
2023-03-15T21:41:09.690Z,11.32
2023-03-15T21:43:37.783Z,11.23
2023-03-15T21:46:07.613Z,7.60
2023-03-15T21:48:36.963Z,8.73
2023-03-15T21:51:04.782Z,8.27
2023-03-15T21:53:34.100Z,8.98
2023-03-15T21:56:02.220Z,9.52
2023-03-15T21:58:29.337Z,8.68
2023-03-15T22:01:00.055Z,9.65
2023-03-15T22:03:27.391Z,7.85
2023-03-15T22:05:54.452Z,9.18
2023-03-15T22:08:21.408Z,8.70
2023-03-15T22:10:52.169Z,8.57
2023-03-15T22:13:19.258Z,9.07
2023-03-15T22:15:46.166Z,9.30
2023-03-15T22:18:13.097Z,8.68
2023-03-15T22:20:40.186Z,9.77
2023-03-15T22:23:07.261Z,9.70
2023-03-15T22:25:34.337Z,10.38
2023-03-15T22:28:02.846Z,10.00
2023-03-15T22:30:29.871Z,9.82
2023-03-15T22:32:57.865Z,9.90
2023-03-15T22:35:25.801Z,9.43
2023-03-15T22:37:57.849Z,9.85
2023-03-15T22:40:26.953Z,10.23
2023-03-15T22:42:54.203Z,10.32
2023-03-15T22:45:22.567Z,9.57
2023-03-15T22:47:49.833Z,9.93
2023-03-15T22:50:16.924Z,10.32
2023-03-15T22:52:44.046Z,9.52
2023-03-15T22:55:11.650Z,10.23
2023-03-15T22:57:38.644Z,10.25
2023-03-15T23:00:07.428Z,9.65
2023-03-15T23:02:36.261Z,9.65
2023-03-15T23:05:03.371Z,9.48
2023-03-15T23:07:30.350Z,9.27
2023-03-15T23:09:57.251Z,9.85
2023-03-15T23:12:33.908Z,9.38
2023-03-15T23:15:04.207Z,9.75
2023-03-15T23:17:31.474Z,9.45
2023-03-15T23:19:59.899Z,9.35
2023-03-15T23:22:27.130Z,9.55
2023-03-15T23:24:57.922Z,10.43
2023-03-15T23:27:26.158Z,9.85
2023-03-15T23:29:54.874Z,10.50
2023-03-15T23:32:22.729Z,11.05
2023-03-15T23:34:49.872Z,10.23
2023-03-15T23:37:21.051Z,10.55
2023-03-15T23:39:48.026Z,10.35
2023-03-15T23:42:14.953Z,10.20
2023-03-15T23:44:42.114Z,9.68
2023-03-15T23:47:09.299Z,10.75
2023-03-15T23:49:36.460Z,10.50
2023-03-15T23:52:05.806Z,10.10
2023-03-15T23:54:42.251Z,10.52
2023-03-15T23:57:11.586Z,11.55
2023-03-15T23:59:40.018Z,10.90
